Time;durP1;ratioP1;P1;durP2;ratioP2;P2;SDS_P1;SDS_P2;PMS_P1;PMS_P2;Temp;Humidity;BMP_temperature;BMP_pressure;BME280_temperature;BME280_humidity;BME280_pressure;Samples;Min_cycle;Max_cycle;Signal;HPM_P1;HPM_P2
2022/01/07 00:00:07;;;;;;;14.63;8.05;;;;;;;;;;5068092;28;20025;-80
2022/01/07 00:02:33;;;;;;;18.00;7.88;;;;;;;;;;5071301;28;20025;-80
2022/01/07 00:04:58;;;;;;;18.02;7.43;;;;;;;;;;5070375;28;20021;-80
2022/01/07 00:07:24;;;;;;;19.10;6.70;;;;;;;;;;5071566;28;20451;-80
2022/01/07 00:09:49;;;;;;;16.17;6.65;;;;;;;;;;5055925;28;20067;-81
2022/01/07 00:12:19;;;;;;;14.93;6.00;;;;;;;;;;5071097;28;20021;-79
2022/01/07 00:14:44;;;;;;;14.00;5.90;;;;;;;;;;5063389;28;20021;-81
2022/01/07 00:17:10;;;;;;;20.23;5.38;;;;;;;;;;5070276;28;20031;-81
2022/01/07 00:19:35;;;;;;;19.52;6.03;;;;;;;;;;5067744;28;20044;-79
2022/01/07 00:22:00;;;;;;;17.05;6.00;;;;;;;;;;5067365;28;20029;-79
2022/01/07 00:24:26;;;;;;;15.77;6.70;;;;;;;;;;5071336;28;20032;-79
2022/01/07 00:26:51;;;;;;;12.02;6.03;;;;;;;;;;5071792;28;20403;-80
2022/01/07 00:29:16;;;;;;;13.50;5.72;;;;;;;;;;5069394;28;20079;-79
2022/01/07 00:31:42;;;;;;;13.52;5.80;;;;;;;;;;5070090;28;20017;-79
2022/01/07 00:34:07;;;;;;;14.07;5.68;;;;;;;;;;5067470;28;20047;-80
2022/01/07 00:36:33;;;;;;;11.25;5.25;;;;;;;;;;5050676;28;20056;-80
2022/01/07 00:38:58;;;;;;;12.25;5.22;;;;;;;;;;5065053;28;20040;-81
2022/01/07 00:41:23;;;;;;;14.73;5.95;;;;;;;;;;5058017;28;20105;-81
2022/01/07 00:43:50;;;;;;;15.32;6.25;;;;;;;;;;5058294;28;20031;-80
2022/01/07 00:46:17;;;;;;;18.67;6.45;;;;;;;;;;5054387;28;20074;-82
2022/01/07 00:48:43;;;;;;;11.75;5.35;;;;;;;;;;5044809;28;20483;-79
2022/01/07 00:51:09;;;;;;;14.98;5.97;;;;;;;;;;5058923;28;20031;-81
2022/01/07 00:53:34;;;;;;;12.13;6.35;;;;;;;;;;5064413;28;20048;-81
2022/01/07 00:56:00;;;;;;;13.90;5.80;;;;;;;;;;5060968;28;20021;-81
2022/01/07 00:58:25;;;;;;;12.77;6.28;;;;;;;;;;5058563;28;20029;-81
2022/01/07 01:00:50;;;;;;;9.77;5.60;;;;;;;;;;5056477;28;20029;-81
2022/01/07 01:03:16;;;;;;;11.15;5.43;;;;;;;;;;5055036;28;20017;-81
2022/01/07 01:05:44;;;;;;;13.02;5.45;;;;;;;;;;5061928;28;20509;-78
2022/01/07 01:08:10;;;;;;;11.43;5.63;;;;;;;;;;5048672;28;20025;-81
2022/01/07 01:10:36;;;;;;;14.05;5.70;;;;;;;;;;5056539;28;20032;-81
2022/01/07 01:13:01;;;;;;;12.20;5.78;;;;;;;;;;5073849;28;20055;-80
2022/01/07 01:15:27;;;;;;;16.05;5.75;;;;;;;;;;5073418;28;20076;-80
2022/01/07 01:17:55;;;;;;;13.63;6.07;;;;;;;;;;5074704;28;20069;-80
2022/01/07 01:20:21;;;;;;;18.60;5.40;;;;;;;;;;5074215;28;20036;-80
2022/01/07 01:22:47;;;;;;;10.88;5.22;;;;;;;;;;5060592;28;20028;-81
2022/01/07 01:25:13;;;;;;;12.70;5.65;;;;;;;;;;5060238;28;20113;-81
2022/01/07 01:27:42;;;;;;;16.23;5.93;;;;;;;;;;5070474;28;20063;-81
2022/01/07 01:30:10;;;;;;;15.02;5.78;;;;;;;;;;5070768;28;20025;-82
2022/01/07 01:32:36;;;;;;;13.40;6.63;;;;;;;;;;5060012;28;20033;-81
2022/01/07 01:35:05;;;;;;;17.65;5.60;;;;;;;;;;5060429;28;20037;-81
2022/01/07 01:37:31;;;;;;;16.98;6.18;;;;;;;;;;5059891;28;20215;-81
2022/01/07 01:39:57;;;;;;;9.20;5.63;;;;;;;;;;5049671;28;20029;-81
2022/01/07 01:42:23;;;;;;;16.98;5.55;;;;;;;;;;5059321;28;20467;-81
2022/01/07 01:44:48;;;;;;;11.77;4.60;;;;;;;;;;5057720;28;20033;-82
2022/01/07 01:47:14;;;;;;;9.88;5.40;;;;;;;;;;5058997;28;20033;-81
2022/01/07 01:49:39;;;;;;;11.18;5.05;;;;;;;;;;5058121;28;20052;-81
2022/01/07 01:52:05;;;;;;;12.60;5.15;;;;;;;;;;5058967;28;20089;-81
2022/01/07 01:54:31;;;;;;;13.05;5.35;;;;;;;;;;5058564;28;20033;-80
2022/01/07 01:56:56;;;;;;;10.27;6.13;;;;;;;;;;5062281;28;20044;-82
2022/01/07 01:59:26;;;;;;;12.27;5.28;;;;;;;;;;5052307;28;20420;-82
2022/01/07 02:01:53;;;;;;;8.82;5.00;;;;;;;;;;5054009;28;20064;-82
2022/01/07 02:04:18;;;;;;;17.02;5.43;;;;;;;;;;5039636;28;20025;-81
2022/01/07 02:06:44;;;;;;;11.00;5.47;;;;;;;;;;5040098;28;20032;-81
2022/01/07 02:09:10;;;;;;;10.95;5.45;;;;;;;;;;5066623;28;20036;-81
2022/01/07 02:11:36;;;;;;;14.32;6.15;;;;;;;;;;5074194;28;20099;-81
2022/01/07 02:14:01;;;;;;;10.68;6.07;;;;;;;;;;5070099;28;20090;-82
2022/01/07 02:16:28;;;;;;;12.02;5.55;;;;;;;;;;5066217;28;20052;-81
2022/01/07 02:18:54;;;;;;;9.77;6.10;;;;;;;;;;5058300;28;20043;-81
2022/01/07 02:21:22;;;;;;;13.15;5.88;;;;;;;;;;5056684;28;20041;-82
2022/01/07 02:23:48;;;;;;;9.52;4.78;;;;;;;;;;5056728;28;20120;-82
2022/01/07 02:26:14;;;;;;;11.80;5.85;;;;;;;;;;5068079;28;20052;-82
2022/01/07 02:28:41;;;;;;;15.07;6.70;;;;;;;;;;5062560;28;20036;-79
2022/01/07 02:31:07;;;;;;;13.82;6.03;;;;;;;;;;5041216;28;20029;-81
2022/01/07 02:33:32;;;;;;;18.25;6.40;;;;;;;;;;5061978;28;20120;-80
2022/01/07 02:35:58;;;;;;;15.30;6.25;;;;;;;;;;5039914;28;20029;-81
2022/01/07 02:38:23;;;;;;;12.88;6.03;;;;;;;;;;5059130;28;20434;-79
2022/01/07 02:40:48;;;;;;;13.00;6.20;;;;;;;;;;5058364;28;20029;-82
2022/01/07 02:43:14;;;;;;;13.88;6.18;;;;;;;;;;5058299;28;20028;-82
2022/01/07 02:45:40;;;;;;;12.70;6.38;;;;;;;;;;5058165;28;20104;-81
2022/01/07 02:48:05;;;;;;;14.20;6.28;;;;;;;;;;5057080;28;20020;-81
2022/01/07 02:50:35;;;;;;;13.18;5.80;;;;;;;;;;5040175;28;20055;-82
2022/01/07 02:53:03;;;;;;;10.32;6.10;;;;;;;;;;5071725;28;20021;-81
2022/01/07 02:55:28;;;;;;;11.00;6.28;;;;;;;;;;5077608;28;20021;-82
2022/01/07 02:57:54;;;;;;;14.10;6.25;;;;;;;;;;5071407;28;20024;-81
2022/01/07 03:00:21;;;;;;;17.00;6.03;;;;;;;;;;5065214;28;20024;-82
2022/01/07 03:02:48;;;;;;;20.05;6.35;;;;;;;;;;5061102;28;20079;-81
2022/01/07 03:05:14;;;;;;;15.65;6.55;;;;;;;;;;5060660;28;20044;-81
2022/01/07 03:07:40;;;;;;;13.73;6.25;;;;;;;;;;5042808;28;20029;-81
2022/01/07 03:10:06;;;;;;;11.57;5.72;;;;;;;;;;5060579;28;20025;-82
2022/01/07 03:12:33;;;;;;;15.70;6.57;;;;;;;;;;5041377;28;20036;-82
2022/01/07 03:14:58;;;;;;;8.52;5.85;;;;;;;;;;5061578;28;20395;-81
2022/01/07 03:17:24;;;;;;;10.88;6.15;;;;;;;;;;5044981;28;20025;-81
2022/01/07 03:19:49;;;;;;;14.25;6.13;;;;;;;;;;5062584;28;20023;-81
2022/01/07 03:22:14;;;;;;;10.50;5.78;;;;;;;;;;5070017;28;20016;-81
2022/01/07 03:24:40;;;;;;;10.43;6.25;;;;;;;;;;5061174;28;20029;-79
2022/01/07 03:27:06;;;;;;;12.52;5.18;;;;;;;;;;5072222;28;20028;-82
2022/01/07 03:29:32;;;;;;;11.60;5.57;;;;;;;;;;5080349;28;20086;-82
2022/01/07 03:31:57;;;;;;;8.55;5.75;;;;;;;;;;5061982;28;20017;-82
2022/01/07 03:34:23;;;;;;;10.93;5.93;;;;;;;;;;5061764;28;20108;-82
2022/01/07 03:36:48;;;;;;;12.30;5.72;;;;;;;;;;5062036;28;20021;-81
2022/01/07 03:39:14;;;;;;;13.73;6.55;;;;;;;;;;5043808;28;20036;-82
2022/01/07 03:41:39;;;;;;;10.90;6.13;;;;;;;;;;5043311;28;20025;-81
2022/01/07 03:44:05;;;;;;;14.05;5.80;;;;;;;;;;5070068;28;20390;-82
2022/01/07 03:46:30;;;;;;;14.43;6.72;;;;;;;;;;5080079;28;20119;-82
2022/01/07 03:48:55;;;;;;;10.00;5.97;;;;;;;;;;5069748;28;20029;-81
2022/01/07 03:51:21;;;;;;;18.15;6.10;;;;;;;;;;5059467;28;20075;-82
2022/01/07 03:53:46;;;;;;;16.98;6.60;;;;;;;;;;5067656;28;20539;-82
2022/01/07 03:56:17;;;;;;;13.32;5.82;;;;;;;;;;5068248;28;20025;-81
2022/01/07 03:58:43;;;;;;;13.17;7.13;;;;;;;;;;5075893;28;20055;-82
2022/01/07 04:01:09;;;;;;;11.55;6.13;;;;;;;;;;5060043;28;20021;-82
2022/01/07 04:03:34;;;;;;;9.43;5.43;;;;;;;;;;5060069;28;20024;-81
2022/01/07 04:06:00;;;;;;;12.05;6.30;;;;;;;;;;5077479;28;20021;-81
2022/01/07 04:08:26;;;;;;;11.93;6.07;;;;;;;;;;5070123;28;20021;-82
2022/01/07 04:10:51;;;;;;;7.95;4.88;;;;;;;;;;5060860;28;20033;-81
2022/01/07 04:13:16;;;;;;;9.43;5.20;;;;;;;;;;5039379;28;20017;-81
2022/01/07 04:15:42;;;;;;;11.60;5.30;;;;;;;;;;5040455;28;20391;-81
2022/01/07 04:18:07;;;;;;;10.85;5.70;;;;;;;;;;5040974;28;20055;-81
2022/01/07 04:20:34;;;;;;;10.40;5.55;;;;;;;;;;5040721;28;20097;-81
2022/01/07 04:23:00;;;;;;;11.50;5.78;;;;;;;;;;5068971;28;20028;-81
2022/01/07 04:25:26;;;;;;;15.55;6.18;;;;;;;;;;5076238;28;20016;-82
2022/01/07 04:27:57;;;;;;;11.05;5.55;;;;;;;;;;5072620;28;20032;-82
2022/01/07 04:30:23;;;;;;;9.07;5.15;;;;;;;;;;5065409;28;20428;-82
2022/01/07 04:32:49;;;;;;;12.43;5.32;;;;;;;;;;5060391;28;20479;-81
2022/01/07 04:35:16;;;;;;;9.60;5.30;;;;;;;;;;5060555;28;20032;-80
2022/01/07 04:37:42;;;;;;;10.35;5.65;;;;;;;;;;5041399;28;20060;-81
2022/01/07 04:40:10;;;;;;;18.70;5.50;;;;;;;;;;5061057;28;20028;-81
2022/01/07 04:42:36;;;;;;;14.10;5.57;;;;;;;;;;5060919;28;20506;-80
2022/01/07 04:45:04;;;;;;;11.32;5.82;;;;;;;;;;5060760;28;20035;-80
2022/01/07 04:47:29;;;;;;;12.38;6.25;;;;;;;;;;5060859;28;20029;-81
2022/01/07 04:49:54;;;;;;;13.55;6.40;;;;;;;;;;5059582;28;21416;-81
2022/01/07 04:52:21;;;;;;;11.13;5.05;;;;;;;;;;5060613;28;20030;-81
2022/01/07 04:54:46;;;;;;;8.43;5.38;;;;;;;;;;5072675;28;20025;-81
2022/01/07 04:57:12;;;;;;;10.23;6.00;;;;;;;;;;5067792;28;20037;-80
2022/01/07 04:59:37;;;;;;;9.55;5.25;;;;;;;;;;5060631;28;20047;-81
2022/01/07 05:02:03;;;;;;;16.13;5.40;;;;;;;;;;5059804;28;20048;-82
2022/01/07 05:04:28;;;;;;;11.68;5.57;;;;;;;;;;5060094;28;20025;-81
2022/01/07 05:06:53;;;;;;;9.90;5.03;;;;;;;;;;5042755;28;20029;-81
2022/01/07 05:09:19;;;;;;;19.70;5.70;;;;;;;;;;5042875;28;20031;-82
2022/01/07 05:11:50;;;;;;;13.00;4.95;;;;;;;;;;5052675;28;20037;-81
2022/01/07 05:14:16;;;;;;;6.05;4.25;;;;;;;;;;5051772;28;20036;-80
2022/01/07 05:16:41;;;;;;;6.00;4.35;;;;;;;;;;5060320;28;20072;-81
2022/01/07 05:19:07;;;;;;;10.15;4.07;;;;;;;;;;5061407;28;20032;-82
2022/01/07 05:21:33;;;;;;;12.02;4.60;;;;;;;;;;5066471;28;20016;-81
2022/01/07 05:23:58;;;;;;;7.10;4.10;;;;;;;;;;5071243;28;20066;-81
2022/01/07 05:26:24;;;;;;;10.88;4.55;;;;;;;;;;5070445;28;20119;-82
2022/01/07 05:28:52;;;;;;;10.00;5.10;;;;;;;;;;5074668;28;20031;-81
2022/01/07 05:31:19;;;;;;;8.15;4.50;;;;;;;;;;5041437;28;20025;-81
2022/01/07 05:33:45;;;;;;;11.20;4.55;;;;;;;;;;5058953;28;20422;-82
2022/01/07 05:36:10;;;;;;;7.90;4.68;;;;;;;;;;5058941;28;20526;-82
2022/01/07 05:38:35;;;;;;;15.15;4.95;;;;;;;;;;5059169;28;20078;-80
2022/01/07 05:41:01;;;;;;;11.10;4.65;;;;;;;;;;5057990;28;20020;-82
2022/01/07 05:43:30;;;;;;;9.95;5.20;;;;;;;;;;5059245;28;20025;-82
2022/01/07 05:45:56;;;;;;;7.57;4.38;;;;;;;;;;5059285;28;20094;-80
2022/01/07 05:48:22;;;;;;;8.07;4.22;;;;;;;;;;5059244;28;20032;-81
2022/01/07 05:50:47;;;;;;;7.72;4.45;;;;;;;;;;5058407;28;20036;-81
2022/01/07 05:53:12;;;;;;;10.13;4.43;;;;;;;;;;5066550;28;20025;-82
2022/01/07 05:55:38;;;;;;;9.88;5.18;;;;;;;;;;5065159;28;20047;-81
2022/01/07 05:58:04;;;;;;;8.45;4.75;;;;;;;;;;5053475;28;20058;-83
2022/01/07 06:00:29;;;;;;;9.20;4.60;;;;;;;;;;5063959;28;20029;-83
2022/01/07 06:02:55;;;;;;;12.25;4.97;;;;;;;;;;5059120;28;20033;-82
2022/01/07 06:05:20;;;;;;;11.00;5.13;;;;;;;;;;5042717;28;20368;-82
2022/01/07 06:07:46;;;;;;;9.80;5.97;;;;;;;;;;5042432;28;20052;-81
2022/01/07 06:10:11;;;;;;;11.18;4.60;;;;;;;;;;5060954;28;20032;-81
2022/01/07 06:12:37;;;;;;;7.00;4.70;;;;;;;;;;5059745;28;20024;-83
2022/01/07 06:17:36;;;;;;;9.27;5.05;;;;;;;;;;5034388;28;20079;-83
2022/01/07 06:20:06;;;;;;;13.75;4.93;;;;;;;;;;5037636;28;20075;-81
2022/01/07 06:22:31;;;;;;;11.98;5.25;;;;;;;;;;5038032;28;20076;-82
2022/01/07 06:24:57;;;;;;;9.13;4.82;;;;;;;;;;5045364;28;20034;-83
2022/01/07 06:27:22;;;;;;;16.23;5.97;;;;;;;;;;5034855;28;20029;-83
2022/01/07 06:29:47;;;;;;;9.02;5.22;;;;;;;;;;5034861;28;20029;-82
2022/01/07 06:32:13;;;;;;;10.30;5.47;;;;;;;;;;5031472;28;20030;-83
2022/01/07 06:34:38;;;;;;;7.47;4.82;;;;;;;;;;5033815;28;20036;-82
2022/01/07 06:37:04;;;;;;;12.68;5.20;;;;;;;;;;5031252;28;20080;-84
2022/01/07 06:39:30;;;;;;;10.07;5.63;;;;;;;;;;5008058;28;20029;-83
2022/01/07 06:41:57;;;;;;;13.63;6.50;;;;;;;;;;5022869;28;20056;-80
2022/01/07 06:44:23;;;;;;;22.10;10.32;;;;;;;;;;5025763;28;20058;-82
2022/01/07 06:46:49;;;;;;;16.42;7.57;;;;;;;;;;5026072;28;20041;-82
2022/01/07 06:49:14;;;;;;;11.95;6.72;;;;;;;;;;5029320;28;20369;-84
2022/01/07 06:51:41;;;;;;;12.93;5.65;;;;;;;;;;5012442;28;20033;-82
2022/01/07 06:54:07;;;;;;;12.70;6.53;;;;;;;;;;5022335;28;20030;-83
2022/01/07 06:56:34;;;;;;;10.98;6.13;;;;;;;;;;5035939;28;20028;-82
2022/01/07 06:58:59;;;;;;;11.00;6.22;;;;;;;;;;5007461;28;20032;-83
2022/01/07 07:01:24;;;;;;;12.95;6.40;;;;;;;;;;5059792;28;20099;-86
2022/01/07 07:03:50;;;;;;;11.73;6.07;;;;;;;;;;5030787;28;20036;-84
2022/01/07 07:06:15;;;;;;;11.98;6.15;;;;;;;;;;5037751;28;20044;-87
2022/01/07 07:08:41;;;;;;;14.27;7.10;;;;;;;;;;5033935;28;20028;-87
2022/01/07 07:11:06;;;;;;;18.55;6.35;;;;;;;;;;5043146;28;20045;-87
2022/01/07 07:13:32;;;;;;;13.73;5.93;;;;;;;;;;5061004;28;20398;-88
2022/01/07 07:15:57;;;;;;;11.50;6.25;;;;;;;;;;5047464;28;20033;-87
2022/01/07 07:18:23;;;;;;;14.23;6.45;;;;;;;;;;5004732;28;20026;-86
2022/01/07 07:20:48;;;;;;;11.40;5.97;;;;;;;;;;5004751;28;20037;-87
2022/01/07 07:23:13;;;;;;;11.23;5.60;;;;;;;;;;5043454;28;20033;-88
2022/01/07 07:25:39;;;;;;;9.18;5.82;;;;;;;;;;5047903;28;20029;-85
2022/01/07 07:28:05;;;;;;;14.90;6.05;;;;;;;;;;5061582;28;20033;-88
2022/01/07 07:30:36;;;;;;;12.63;6.22;;;;;;;;;;5056758;28;20060;-87
2022/01/07 07:33:30;;;;;;;13.23;6.15;;;;;;;;;;5041346;28;20039;-86
2022/01/07 07:38:39;;;;;;;11.43;5.88;;;;;;;;;;5040952;28;20054;-83
2022/01/07 07:41:06;;;;;;;8.30;5.70;;;;;;;;;;5037452;28;20071;-83
2022/01/07 07:43:35;;;;;;;10.60;5.82;;;;;;;;;;5048789;28;20032;-84
2022/01/07 07:46:01;;;;;;;12.63;5.50;;;;;;;;;;5060205;28;20028;-81
2022/01/07 07:48:27;;;;;;;12.13;6.25;;;;;;;;;;5029021;28;20040;-81
2022/01/07 07:50:53;;;;;;;11.98;6.18;;;;;;;;;;5038137;28;20030;-79
2022/01/07 07:53:18;;;;;;;11.65;6.15;;;;;;;;;;5060028;28;20428;-80
2022/01/07 07:55:53;;;;;;;12.95;5.97;;;;;;;;;;5046592;28;20041;-82
2022/01/07 07:58:23;;;;;;;14.00;6.55;;;;;;;;;;5027251;28;20026;-82
2022/01/07 08:00:49;;;;;;;10.85;5.85;;;;;;;;;;5052843;28;20025;-82
2022/01/07 08:03:14;;;;;;;11.70;5.43;;;;;;;;;;5041372;28;20040;-84
2022/01/07 08:05:40;;;;;;;10.20;5.72;;;;;;;;;;5060343;28;20068;-80
2022/01/07 08:08:06;;;;;;;12.43;6.05;;;;;;;;;;5042418;28;20025;-82
2022/01/07 08:10:32;;;;;;;10.80;5.70;;;;;;;;;;5059506;28;20390;-80
2022/01/07 08:18:13;;;;;;;9.50;4.75;;;;;;;;;;5060280;28;20497;-81
2022/01/07 08:20:39;;;;;;;12.55;5.70;;;;;;;;;;5059407;28;20025;-81
2022/01/07 08:23:04;;;;;;;8.80;5.07;;;;;;;;;;5057603;28;20483;-78
2022/01/07 08:25:31;;;;;;;9.75;5.30;;;;;;;;;;5028366;28;20024;-84
2022/01/07 08:28:01;;;;;;;8.38;5.03;;;;;;;;;;5055659;28;20052;-84
2022/01/07 08:30:29;;;;;;;12.52;4.85;;;;;;;;;;5052626;28;20053;-81
2022/01/07 08:35:39;;;;;;;10.10;5.28;;;;;;;;;;5059579;28;20031;-82
2022/01/07 08:38:05;;;;;;;10.88;5.25;;;;;;;;;;5059206;28;20115;-82
2022/01/07 08:40:31;;;;;;;10.57;5.53;;;;;;;;;;5036192;28;20029;-83
2022/01/07 08:42:56;;;;;;;9.20;5.50;;;;;;;;;;5051458;28;20029;-82
2022/01/07 08:45:24;;;;;;;9.50;5.68;;;;;;;;;;5058140;28;20037;-82
2022/01/07 08:47:49;;;;;;;10.00;5.43;;;;;;;;;;5040438;28;20035;-82
2022/01/07 08:50:14;;;;;;;12.32;6.00;;;;;;;;;;5058073;28;20383;-82
2022/01/07 08:52:40;;;;;;;9.57;6.22;;;;;;;;;;5039532;28;20038;-80
2022/01/07 08:55:06;;;;;;;9.93;5.30;;;;;;;;;;5053663;28;20085;-83
2022/01/07 08:57:31;;;;;;;10.32;5.88;;;;;;;;;;5058379;28;20055;-82
2022/01/07 08:59:56;;;;;;;9.98;6.13;;;;;;;;;;5054241;28;20430;-82
2022/01/07 09:02:22;;;;;;;12.13;6.30;;;;;;;;;;5058473;28;20048;-82
2022/01/07 09:04:47;;;;;;;11.93;5.53;;;;;;;;;;5036213;28;20075;-83
2022/01/07 09:07:13;;;;;;;13.48;6.60;;;;;;;;;;5015693;28;20025;-80
2022/01/07 09:09:39;;;;;;;9.40;5.53;;;;;;;;;;5058414;28;20021;-82
2022/01/07 09:12:05;;;;;;;13.40;5.88;;;;;;;;;;5059560;28;20035;-80
2022/01/07 09:14:31;;;;;;;13.35;5.70;;;;;;;;;;5035115;28;20025;-80
2022/01/07 09:16:57;;;;;;;10.07;5.40;;;;;;;;;;5058748;28;20454;-83
2022/01/07 09:19:22;;;;;;;11.15;6.22;;;;;;;;;;5045902;28;20075;-82
2022/01/07 09:21:48;;;;;;;10.68;5.45;;;;;;;;;;5013021;28;20036;-84
2022/01/07 09:24:13;;;;;;;11.20;5.80;;;;;;;;;;5045192;28;20060;-84
2022/01/07 09:26:39;;;;;;;8.85;5.53;;;;;;;;;;5050072;28;20033;-82
2022/01/07 09:29:04;;;;;;;12.55;6.30;;;;;;;;;;5056739;28;20148;-82
2022/01/07 09:31:30;;;;;;;12.77;5.80;;;;;;;;;;5033060;28;20021;-82
2022/01/07 09:33:55;;;;;;;11.60;5.60;;;;;;;;;;5039900;28;20502;-84
2022/01/07 09:36:21;;;;;;;11.93;5.63;;;;;;;;;;5039393;28;20101;-84
2022/01/07 09:38:46;;;;;;;10.88;4.93;;;;;;;;;;5057911;28;20029;-85
2022/01/07 09:41:11;;;;;;;11.35;5.40;;;;;;;;;;5056407;28;20021;-83
2022/01/07 09:43:37;;;;;;;11.60;5.95;;;;;;;;;;5052346;28;20035;-82
2022/01/07 09:46:02;;;;;;;11.30;5.80;;;;;;;;;;5058072;28;20037;-82
2022/01/07 09:48:28;;;;;;;10.73;5.80;;;;;;;;;;5034566;28;20026;-84
2022/01/07 09:50:53;;;;;;;10.00;5.57;;;;;;;;;;5053672;28;20135;-83
2022/01/07 09:53:19;;;;;;;8.05;4.80;;;;;;;;;;5040805;28;20113;-82
2022/01/07 09:55:45;;;;;;;13.65;5.55;;;;;;;;;;5034892;28;20479;-81
2022/01/07 09:58:13;;;;;;;8.75;5.07;;;;;;;;;;5054315;28;20040;-81
2022/01/07 10:00:44;;;;;;;8.48;5.65;;;;;;;;;;5056026;28;20025;-81
2022/01/07 10:03:15;;;;;;;11.73;5.43;;;;;;;;;;5054480;28;20032;-81
2022/01/07 10:05:52;;;;;;;10.70;5.75;;;;;;;;;;5056299;28;20040;-81
2022/01/07 10:08:26;;;;;;;7.97;4.85;;;;;;;;;;5039242;28;20043;-83
2022/01/07 10:11:19;;;;;;;10.48;5.18;;;;;;;;;;5057308;28;20027;-84
2022/01/07 10:13:50;;;;;;;9.48;5.78;;;;;;;;;;5052978;28;20072;-82
2022/01/07 10:16:16;;;;;;;11.82;5.40;;;;;;;;;;5038789;28;20029;-84
2022/01/07 10:18:43;;;;;;;11.70;5.68;;;;;;;;;;5037451;28;20104;-84
2022/01/07 10:21:10;;;;;;;13.18;6.18;;;;;;;;;;5036727;28;20036;-83
2022/01/07 10:23:36;;;;;;;8.15;5.10;;;;;;;;;;5025638;28;20056;-85
2022/01/07 10:26:02;;;;;;;11.35;5.00;;;;;;;;;;5051366;28;20028;-81
2022/01/07 10:28:32;;;;;;;9.57;5.05;;;;;;;;;;5044516;28;20028;-82
2022/01/07 10:31:02;;;;;;;13.57;4.53;;;;;;;;;;5037469;28;20028;-82
2022/01/07 10:33:35;;;;;;;8.80;4.80;;;;;;;;;;5055339;28;20038;-82
2022/01/07 10:36:07;;;;;;;7.00;4.38;;;;;;;;;;5055831;28;20036;-83
2022/01/07 10:38:44;;;;;;;12.93;6.68;;;;;;;;;;5058523;28;20067;-83
2022/01/07 10:41:12;;;;;;;9.75;5.65;;;;;;;;;;5039378;28;20129;-83
2022/01/07 10:43:37;;;;;;;12.52;5.55;;;;;;;;;;5033951;28;20059;-83
2022/01/07 10:46:08;;;;;;;14.30;5.93;;;;;;;;;;5057721;28;20025;-83
2022/01/07 10:48:37;;;;;;;9.25;5.65;;;;;;;;;;5039471;28;20029;-83
2022/01/07 10:51:08;;;;;;;10.45;5.57;;;;;;;;;;5042674;28;20017;-82
2022/01/07 10:53:34;;;;;;;10.97;5.97;;;;;;;;;;5057597;28;20159;-82
2022/01/07 10:56:09;;;;;;;12.38;6.35;;;;;;;;;;5027917;28;20049;-82
2022/01/07 10:58:47;;;;;;;14.15;7.85;;;;;;;;;;5046454;28;20027;-81
2022/01/07 11:01:18;;;;;;;11.50;6.32;;;;;;;;;;5023657;28;20025;-84
2022/01/07 11:03:44;;;;;;;10.63;5.75;;;;;;;;;;5049474;28;20036;-83
2022/01/07 11:06:10;;;;;;;11.10;6.30;;;;;;;;;;5026614;28;20033;-83
2022/01/07 11:08:35;;;;;;;11.32;5.40;;;;;;;;;;5025604;28;20459;-84
2022/01/07 11:11:00;;;;;;;15.07;5.93;;;;;;;;;;5000095;28;20503;-84
2022/01/07 11:13:26;;;;;;;16.85;6.53;;;;;;;;;;5015604;28;20084;-82
2022/01/07 11:15:51;;;;;;;13.15;5.93;;;;;;;;;;5028243;28;20112;-84
2022/01/07 11:18:17;;;;;;;12.95;5.75;;;;;;;;;;5060672;28;20089;-83
2022/01/07 11:20:44;;;;;;;14.35;6.70;;;;;;;;;;5044678;28;20022;-83
2022/01/07 11:23:10;;;;;;;17.08;6.13;;;;;;;;;;5034690;28;20111;-84
2022/01/07 11:25:35;;;;;;;14.25;6.95;;;;;;;;;;5037786;28;20078;-84
2022/01/07 11:28:01;;;;;;;11.73;6.43;;;;;;;;;;5042346;28;20114;-82
2022/01/07 11:30:32;;;;;;;13.45;6.78;;;;;;;;;;5035552;28;20017;-84
2022/01/07 11:32:59;;;;;;;14.68;6.28;;;;;;;;;;5060740;28;20033;-83
2022/01/07 11:35:24;;;;;;;11.68;6.55;;;;;;;;;;5059880;28;20025;-84
2022/01/07 11:37:55;;;;;;;13.70;6.13;;;;;;;;;;5044038;28;20024;-82
2022/01/07 11:40:30;;;;;;;13.95;7.13;;;;;;;;;;5045154;28;20483;-81
2022/01/07 11:42:59;;;;;;;13.25;6.57;;;;;;;;;;5041238;28;20755;-84
2022/01/07 11:45:28;;;;;;;12.73;7.28;;;;;;;;;;5042203;28;20032;-83
2022/01/07 11:48:23;;;;;;;10.43;6.50;;;;;;;;;;5042655;28;20029;-83
2022/01/07 11:50:55;;;;;;;11.93;6.60;;;;;;;;;;5059052;28;20053;-82
2022/01/07 11:53:23;;;;;;;11.88;6.63;;;;;;;;;;5041809;28;20033;-83
2022/01/07 11:55:49;;;;;;;11.43;6.75;;;;;;;;;;5059234;28;20036;-83
2022/01/07 11:58:16;;;;;;;12.82;6.45;;;;;;;;;;5059929;28;20024;-83
2022/01/07 12:01:00;;;;;;;13.35;6.07;;;;;;;;;;5051438;28;20025;-82
2022/01/07 12:03:31;;;;;;;14.20;6.15;;;;;;;;;;5060111;28;20112;-83
2022/01/07 12:05:57;;;;;;;13.20;5.80;;;;;;;;;;5059627;28;20036;-82
2022/01/07 12:09:05;;;;;;;11.70;5.72;;;;;;;;;;5059346;28;20054;-82
2022/01/07 12:11:41;;;;;;;8.05;5.30;;;;;;;;;;5063586;28;20081;-84
2022/01/07 12:14:10;;;;;;;13.25;6.03;;;;;;;;;;5056462;28;20039;-82
2022/01/07 12:16:38;;;;;;;17.48;6.32;;;;;;;;;;5078008;28;20009;-81
2022/01/07 12:19:15;;;;;;;13.63;5.93;;;;;;;;;;5074794;28;20036;-81
2022/01/07 12:22:01;;;;;;;11.85;5.65;;;;;;;;;;5072472;28;20221;-81
2022/01/07 12:24:30;;;;;;;13.40;5.35;;;;;;;;;;5049877;28;20082;-82
2022/01/07 12:27:08;;;;;;;7.70;4.93;;;;;;;;;;5051300;28;20026;-81
2022/01/07 12:29:39;;;;;;;11.82;5.38;;;;;;;;;;5057312;28;20018;-82
2022/01/07 12:32:06;;;;;;;9.00;4.97;;;;;;;;;;5044174;28;20029;-82
2022/01/07 12:34:34;;;;;;;7.78;4.90;;;;;;;;;;5044167;28;20487;-82
2022/01/07 12:37:05;;;;;;;11.25;4.90;;;;;;;;;;5063014;28;20556;-82
2022/01/07 12:39:36;;;;;;;8.85;4.03;;;;;;;;;;5045220;28;20216;-82
2022/01/07 12:42:01;;;;;;;7.53;4.18;;;;;;;;;;5027274;28;20033;-82
2022/01/07 12:44:34;;;;;;;9.38;4.25;;;;;;;;;;5043490;28;20021;-82
2022/01/07 12:46:59;;;;;;;8.43;4.75;;;;;;;;;;5044903;28;20071;-82
2022/01/07 12:49:38;;;;;;;6.40;4.22;;;;;;;;;;5061790;28;20041;-82
2022/01/07 12:52:07;;;;;;;15.80;5.25;;;;;;;;;;5057101;28;20099;-82
2022/01/07 12:54:33;;;;;;;7.53;4.40;;;;;;;;;;5058162;28;20036;-83
2022/01/07 12:56:59;;;;;;;11.02;4.78;;;;;;;;;;5041631;28;20040;-83
2022/01/07 12:59:28;;;;;;;7.18;4.50;;;;;;;;;;5061829;28;20021;-82
2022/01/07 13:01:54;;;;;;;7.22;4.28;;;;;;;;;;5061061;28;20028;-83
2022/01/07 13:04:22;;;;;;;12.13;4.75;;;;;;;;;;5063665;28;20031;-83
2022/01/07 13:06:56;;;;;;;8.38;4.18;;;;;;;;;;5063382;28;20084;-85
2022/01/07 13:09:23;;;;;;;8.63;4.93;;;;;;;;;;5043712;28;20024;-83
2022/01/07 13:11:50;;;;;;;7.47;3.83;;;;;;;;;;5010474;28;20053;-83
2022/01/07 13:14:17;;;;;;;7.65;4.47;;;;;;;;;;5003266;28;20186;-81
2022/01/07 13:16:43;;;;;;;8.10;4.60;;;;;;;;;;5017419;28;20034;-85
2022/01/07 13:19:11;;;;;;;5.63;3.67;;;;;;;;;;5060709;28;20028;-82
2022/01/07 13:21:42;;;;;;;10.80;5.00;;;;;;;;;;5049415;28;20096;-81
2022/01/07 13:24:13;;;;;;;22.80;9.27;;;;;;;;;;5042048;28;20051;-82
2022/01/07 13:26:38;;;;;;;23.85;9.25;;;;;;;;;;5037634;28;20509;-83
2022/01/07 13:29:17;;;;;;;9.48;4.40;;;;;;;;;;5057864;28;20029;-82
2022/01/07 13:31:46;;;;;;;8.10;3.83;;;;;;;;;;5037315;28;20029;-81
2022/01/07 13:34:12;;;;;;;7.05;3.70;;;;;;;;;;5062583;28;20347;-81
2022/01/07 13:36:42;;;;;;;6.20;3.50;;;;;;;;;;5062092;28;20031;-82
2022/01/07 13:39:10;;;;;;;5.65;3.50;;;;;;;;;;5046388;28;20040;-81
2022/01/07 13:41:52;;;;;;;9.10;3.58;;;;;;;;;;5040036;28;20044;-83
2022/01/07 13:44:17;;;;;;;8.82;3.50;;;;;;;;;;5063895;28;20033;-81
2022/01/07 13:46:49;;;;;;;7.75;3.50;;;;;;;;;;5041106;28;20040;-82
2022/01/07 13:49:16;;;;;;;6.50;2.65;;;;;;;;;;5047009;28;20084;-83
2022/01/07 13:51:51;;;;;;;6.32;3.60;;;;;;;;;;5046912;28;20029;-86
2022/01/07 13:54:20;;;;;;;3.83;2.60;;;;;;;;;;5021643;28;20059;-85
2022/01/07 13:56:57;;;;;;;3.53;2.53;;;;;;;;;;5026091;28;20068;-88
2022/01/07 13:59:27;;;;;;;4.07;2.65;;;;;;;;;;5015096;28;20260;-89
2022/01/07 14:01:55;;;;;;;8.07;3.00;;;;;;;;;;5042561;28;20020;-86
2022/01/07 14:04:50;;;;;;;5.82;2.97;;;;;;;;;;5047981;28;20052;-86
2022/01/07 14:07:27;;;;;;;5.10;2.63;;;;;;;;;;5046170;28;20017;-83
2022/01/07 14:10:31;;;;;;;5.53;2.70;;;;;;;;;;5045449;28;20040;-84
2022/01/07 14:13:12;;;;;;;6.47;2.50;;;;;;;;;;5040459;28;20035;-86
2022/01/07 14:15:49;;;;;;;7.47;2.90;;;;;;;;;;5040059;28;20386;-88
2022/01/07 14:18:17;;;;;;;4.30;2.67;;;;;;;;;;5033166;28;20068;-86
2022/01/07 14:20:55;;;;;;;6.05;2.45;;;;;;;;;;5031557;28;20033;-81
2022/01/07 14:23:29;;;;;;;3.83;2.65;;;;;;;;;;5043250;28;20021;-81
2022/01/07 14:26:04;;;;;;;4.82;2.70;;;;;;;;;;5046666;28;20029;-81
2022/01/07 14:28:30;;;;;;;3.42;2.60;;;;;;;;;;5051741;28;20025;-80
2022/01/07 14:30:56;;;;;;;3.40;2.53;;;;;;;;;;5056480;28;20100;-81
2022/01/07 14:33:21;;;;;;;4.45;2.17;;;;;;;;;;5057216;28;20044;-84
2022/01/07 14:35:47;;;;;;;6.40;2.75;;;;;;;;;;5039853;28;20021;-82
2022/01/07 14:38:14;;;;;;;5.95;2.20;;;;;;;;;;5038609;28;20029;-89
2022/01/07 14:40:41;;;;;;;8.60;2.42;;;;;;;;;;5038796;28;20056;-83
2022/01/07 14:43:07;;;;;;;4.78;2.50;;;;;;;;;;5034193;28;20045;-85
2022/01/07 14:45:32;;;;;;;5.25;2.28;;;;;;;;;;5037890;28;20024;-86
2022/01/07 14:47:58;;;;;;;2.55;2.03;;;;;;;;;;5042135;28;20028;-86